createdAt,value
2018-06-25T00:01:50.945Z,79.17
2018-06-25T00:04:20.221Z,79.14
2018-06-25T00:06:49.188Z,78.71
2018-06-25T00:09:18.129Z,79.16
2018-06-25T00:11:47.048Z,79.56
2018-06-25T00:14:16.017Z,79.41
2018-06-25T00:16:45.057Z,79.35
2018-06-25T00:19:14.069Z,79.15
2018-06-25T00:21:43.000Z,79.16
2018-06-25T00:24:11.953Z,79.13
2018-06-25T00:26:40.881Z,79.13
2018-06-25T00:29:09.841Z,79.06
2018-06-25T00:31:38.797Z,79.28
2018-06-25T00:34:07.727Z,79.24
2018-06-25T00:36:36.735Z,79.01
2018-06-25T00:39:08.921Z,79.31
2018-06-25T00:41:38.109Z,79.32
2018-06-25T00:44:07.197Z,78.93
2018-06-25T00:46:36.147Z,78.72
2018-06-25T00:49:05.165Z,78.73
2018-06-25T00:51:34.199Z,78.84
2018-06-25T00:54:03.168Z,78.37
2018-06-25T00:56:32.114Z,78.33
2018-06-25T00:59:12.549Z,78.52
2018-06-25T01:01:41.529Z,78.52
2018-06-25T01:04:10.477Z,78.50
2018-06-25T01:06:39.456Z,78.76
2018-06-25T01:09:10.629Z,78.92
2018-06-25T01:11:39.753Z,79.15
2018-06-25T01:14:08.701Z,79.13
2018-06-25T01:16:37.641Z,79.03
2018-06-25T01:19:06.685Z,78.78
2018-06-25T01:21:35.629Z,78.81
2018-06-25T01:24:04.569Z,78.84
2018-06-25T01:26:33.509Z,78.82
2018-06-25T01:29:02.426Z,79.16
2018-06-25T01:31:31.329Z,79.00
2018-06-25T01:34:05.945Z,79.36
2018-06-25T01:36:34.887Z,79.48
2018-06-25T01:39:04.794Z,79.22
2018-06-25T01:41:33.774Z,79.01
2018-06-25T01:44:02.788Z,79.18
2018-06-25T01:46:31.788Z,79.31
2018-06-25T01:49:00.784Z,79.49
2018-06-25T01:51:29.672Z,79.55
2018-06-25T01:53:58.772Z,79.56
2018-06-25T01:56:27.738Z,79.27
2018-06-25T01:58:56.678Z,79.38
2018-06-25T02:01:25.682Z,79.72
2018-06-25T02:03:54.719Z,79.65
2018-06-25T02:06:24.698Z,79.61
2018-06-25T02:08:53.612Z,79.45
2018-06-25T02:11:22.558Z,79.66
2018-06-25T02:13:51.474Z,79.42
2018-06-25T02:16:20.483Z,79.22
2018-06-25T02:18:49.385Z,79.66
2018-06-25T02:21:18.388Z,79.61
2018-06-25T02:23:47.362Z,79.84
2018-06-25T02:26:16.279Z,79.79
2018-06-25T02:28:45.280Z,79.35
2018-06-25T02:31:14.283Z,79.42
2018-06-25T02:33:43.225Z,79.44
2018-06-25T02:36:12.142Z,79.68
2018-06-25T02:38:41.255Z,80.06
2018-06-25T02:41:10.179Z,79.73
2018-06-25T02:43:39.165Z,79.53
2018-06-25T02:46:08.139Z,79.47
2018-06-25T02:48:37.087Z,79.88
2018-06-25T02:51:06.131Z,80.09
2018-06-25T02:53:35.079Z,80.21
2018-06-25T02:56:04.085Z,80.27
2018-06-25T02:58:33.042Z,79.98
2018-06-25T03:01:01.973Z,79.83
2018-06-25T03:03:30.914Z,80.24
2018-06-25T03:05:59.842Z,80.34
2018-06-25T03:08:28.805Z,80.23
2018-06-25T03:10:57.784Z,80.53
2018-06-25T03:13:26.789Z,80.45
2018-06-25T03:15:55.719Z,80.67
2018-06-25T03:18:24.683Z,80.76
2018-06-25T03:20:53.661Z,80.79
2018-06-25T03:23:22.552Z,80.73
2018-06-25T03:25:51.511Z,80.82
2018-06-25T03:28:20.476Z,80.99
2018-06-25T03:30:49.519Z,81.19
2018-06-25T03:33:18.484Z,80.97
2018-06-25T03:35:47.470Z,81.09
2018-06-25T03:38:16.374Z,81.01
2018-06-25T03:40:45.359Z,81.04
2018-06-25T03:43:14.376Z,81.28
2018-06-25T03:45:43.421Z,80.92
2018-06-25T03:48:12.460Z,80.74
2018-06-25T03:50:41.492Z,80.58
2018-06-25T03:53:10.425Z,80.26
2018-06-25T03:55:39.405Z,79.97
2018-06-25T03:58:08.420Z,79.56
2018-06-25T04:00:37.385Z,80.14
2018-06-25T04:03:06.458Z,79.92
2018-06-25T04:05:35.457Z,79.24
2018-06-25T04:08:04.523Z,79.52
2018-06-25T04:10:33.456Z,79.06
2018-06-25T04:13:02.461Z,79.24
2018-06-25T04:15:31.374Z,79.87
2018-06-25T04:18:00.373Z,80.44
2018-06-25T04:20:29.342Z,80.23
2018-06-25T04:22:58.242Z,80.18
2018-06-25T04:25:27.661Z,79.86
2018-06-25T04:27:56.782Z,79.30
2018-06-25T04:30:25.711Z,79.49
2018-06-25T04:32:54.753Z,78.61
2018-06-25T04:35:23.722Z,78.32
2018-06-25T04:37:52.609Z,79.05
2018-06-25T04:40:21.630Z,79.28
2018-06-25T04:42:55.883Z,79.78
2018-06-25T04:45:24.810Z,79.35
2018-06-25T04:47:57.610Z,78.91
2018-06-25T04:50:26.609Z,78.36
2018-06-25T04:52:55.513Z,78.53
2018-06-25T04:55:24.583Z,78.14
2018-06-25T04:57:53.584Z,78.62
2018-06-25T05:00:22.537Z,78.64
2018-06-25T05:02:51.530Z,78.73
2018-06-25T05:05:20.646Z,78.82
2018-06-25T05:07:49.637Z,78.89
2018-06-25T05:10:18.581Z,78.87
2018-06-25T05:12:47.509Z,78.52
2018-06-25T05:15:16.501Z,78.83
2018-06-25T05:17:45.473Z,79.01
2018-06-25T05:20:14.414Z,79.42
2018-06-25T05:22:43.429Z,79.34
2018-06-25T05:25:12.456Z,78.98
2018-06-25T05:27:41.379Z,79.09
2018-06-25T05:30:10.410Z,78.68
2018-06-25T05:32:39.402Z,78.39
2018-06-25T05:35:08.317Z,77.66
2018-06-25T05:37:37.287Z,77.51
2018-06-25T05:40:06.299Z,76.91
2018-06-25T05:42:35.363Z,76.73
2018-06-25T05:45:04.429Z,76.74
2018-06-25T05:47:33.393Z,77.33
2018-06-25T05:50:02.339Z,77.80
2018-06-25T05:52:31.352Z,76.89
2018-06-25T05:55:00.333Z,76.80
2018-06-25T05:57:29.290Z,76.20
2018-06-25T05:59:58.256Z,75.90
2018-06-25T06:02:27.187Z,76.55
2018-06-25T06:04:56.108Z,76.70
2018-06-25T06:07:25.137Z,77.59
2018-06-25T06:09:54.151Z,77.59
2018-06-25T06:12:23.114Z,77.46
2018-06-25T06:14:52.107Z,76.84
2018-06-25T06:17:21.085Z,77.18
2018-06-25T06:19:49.980Z,77.28
2018-06-25T06:22:18.974Z,77.23
2018-06-25T06:24:47.973Z,76.98
2018-06-25T06:27:16.946Z,76.91
2018-06-25T06:29:45.906Z,75.94
2018-06-25T06:32:15.024Z,74.74
2018-06-25T06:34:43.936Z,75.22
2018-06-25T06:37:12.987Z,76.08
2018-06-25T06:39:41.975Z,76.81
2018-06-25T06:42:10.978Z,76.10
2018-06-25T06:44:40.064Z,75.85
2018-06-25T06:47:09.085Z,76.16
2018-06-25T06:49:38.022Z,76.19
2018-06-25T06:52:07.109Z,76.12
2018-06-25T06:54:36.073Z,75.20
2018-06-25T06:57:05.193Z,75.03
2018-06-25T06:59:34.232Z,75.98
2018-06-25T07:02:03.344Z,76.45
2018-06-25T07:04:32.644Z,76.07
2018-06-25T07:07:01.848Z,76.12
2018-06-25T07:09:30.838Z,76.23
2018-06-25T07:11:59.960Z,76.20
2018-06-25T07:14:29.068Z,75.76
2018-06-25T07:16:58.019Z,76.01
2018-06-25T07:19:26.938Z,76.12
2018-06-25T07:21:56.026Z,75.76
2018-06-25T07:24:24.996Z,76.86
2018-06-25T07:26:57.300Z,76.47
2018-06-25T07:29:26.265Z,76.10
2018-06-25T07:31:56.236Z,76.50
2018-06-25T07:34:25.263Z,76.28
2018-06-25T07:36:54.288Z,76.00
2018-06-25T07:39:23.259Z,75.29
2018-06-25T07:43:21.737Z,75.81
2018-06-25T07:45:50.753Z,76.09
2018-06-25T07:48:19.846Z,75.67
2018-06-25T07:50:51.026Z,74.75
2018-06-25T07:53:20.081Z,75.25
2018-06-25T07:55:48.949Z,75.18
2018-06-25T07:58:17.968Z,75.09
2018-06-25T08:00:46.909Z,73.63
2018-06-25T08:03:15.896Z,72.94
2018-06-25T08:05:44.988Z,73.67
2018-06-25T08:08:13.973Z,74.09
2018-06-25T08:10:43.128Z,73.01
2018-06-25T08:13:12.090Z,72.15
2018-06-25T08:15:41.209Z,73.31
2018-06-25T08:18:15.904Z,74.40
2018-06-25T08:20:45.021Z,73.44
2018-06-25T08:23:13.964Z,70.64
2018-06-25T08:25:42.960Z,69.72
2018-06-25T08:28:11.896Z,69.71
2018-06-25T08:30:40.834Z,70.34
2018-06-25T08:33:09.804Z,70.61
2018-06-25T08:35:38.791Z,70.67
2018-06-25T08:38:07.898Z,70.00
2018-06-25T08:40:36.898Z,70.84
2018-06-25T08:43:05.981Z,70.67
2018-06-25T08:45:34.972Z,70.37
2018-06-25T08:48:03.964Z,71.63
2018-06-25T08:50:33.029Z,71.59
2018-06-25T08:53:01.973Z,72.55
2018-06-25T08:55:30.942Z,71.75
2018-06-25T08:58:00.237Z,69.35
2018-06-25T09:00:29.189Z,68.61
2018-06-25T09:02:59.175Z,67.07
2018-06-25T09:05:28.258Z,65.89
2018-06-25T09:07:57.369Z,65.15
2018-06-25T09:10:26.318Z,64.18
2018-06-25T09:12:55.299Z,63.14
2018-06-25T09:15:24.375Z,62.76
2018-06-25T09:17:53.278Z,63.67
2018-06-25T09:20:22.568Z,64.91
2018-06-25T09:22:51.545Z,62.96
2018-06-25T09:25:20.538Z,61.47
2018-06-25T09:27:50.289Z,59.91
2018-06-25T09:30:20.215Z,59.33
2018-06-25T09:32:49.184Z,57.42
2018-06-25T09:35:18.208Z,58.83
2018-06-25T09:37:47.108Z,58.99
2018-06-25T09:40:16.022Z,57.57
2018-06-25T09:42:44.999Z,60.49
2018-06-25T09:45:14.189Z,62.56
2018-06-25T09:47:43.179Z,61.86
2018-06-25T09:50:12.209Z,60.74
2018-06-25T09:52:41.210Z,59.81
2018-06-25T09:55:10.283Z,60.31
2018-06-25T09:57:39.291Z,60.55
2018-06-25T10:00:08.289Z,61.44
2018-06-25T10:02:37.217Z,62.93
2018-06-25T10:05:06.297Z,62.79
2018-06-25T10:07:35.425Z,61.61
2018-06-25T10:10:04.459Z,61.35
2018-06-25T10:22:18.404Z,62.89
2018-06-25T10:24:47.417Z,61.82
2018-06-25T10:27:16.396Z,61.32
2018-06-25T10:29:45.341Z,63.65
2018-06-25T10:32:14.401Z,63.10
2018-06-25T10:34:43.399Z,64.52
2018-06-25T10:37:12.417Z,64.18
2018-06-25T10:39:41.354Z,64.96
2018-06-25T10:42:10.364Z,65.49
2018-06-25T10:44:39.266Z,64.95
2018-06-25T10:47:11.380Z,63.98
2018-06-25T10:49:40.465Z,63.84
2018-06-25T10:52:09.678Z,63.83
2018-06-25T10:54:39.792Z,66.19
2018-06-25T10:57:14.275Z,64.45
2018-06-25T10:59:43.311Z,64.63
2018-06-25T11:02:12.123Z,64.62
2018-06-25T11:04:41.128Z,65.30
2018-06-25T11:07:13.517Z,62.92
2018-06-25T11:09:45.544Z,65.34
2018-06-25T11:12:14.841Z,65.00
2018-06-25T11:14:43.783Z,63.01
2018-06-25T11:17:12.952Z,62.55
2018-06-25T11:19:42.367Z,61.99
2018-06-25T11:22:11.475Z,61.24
2018-06-25T11:24:41.038Z,61.93
2018-06-25T11:27:11.329Z,63.24
2018-06-25T11:29:41.317Z,62.50
2018-06-25T11:32:10.932Z,61.75
2018-06-25T11:34:39.982Z,59.48
2018-06-25T11:37:09.321Z,58.04
2018-06-25T11:39:38.237Z,55.56
2018-06-25T11:42:08.075Z,55.15
2018-06-25T11:44:37.233Z,54.81
2018-06-25T11:47:06.580Z,52.44
2018-06-25T11:49:36.728Z,52.56
2018-06-25T11:52:06.181Z,52.20
2018-06-25T11:54:35.558Z,52.87
2018-06-25T11:57:08.281Z,53.32
2018-06-25T11:59:41.105Z,54.61
2018-06-25T12:02:10.366Z,53.58
2018-06-25T12:04:39.319Z,53.21
2018-06-25T12:07:10.334Z,53.04
2018-06-25T12:09:42.410Z,52.30
2018-06-25T12:12:11.512Z,53.29
2018-06-25T12:14:40.440Z,51.37
2018-06-25T12:17:09.354Z,51.19
2018-06-25T12:19:38.415Z,50.51
2018-06-25T12:22:07.375Z,49.22
2018-06-25T12:24:36.381Z,50.27
2018-06-25T12:27:06.340Z,51.19
2018-06-25T12:29:39.005Z,51.40
2018-06-25T12:32:09.014Z,50.38
2018-06-25T12:34:37.905Z,49.36
2018-06-25T12:37:06.859Z,48.01
2018-06-25T12:39:35.785Z,48.31
2018-06-25T12:42:04.761Z,48.60
2018-06-25T12:44:33.742Z,45.61
2018-06-25T12:47:02.722Z,44.94
2018-06-25T12:49:32.644Z,46.34
2018-06-25T12:52:02.143Z,45.79
2018-06-25T12:54:31.085Z,45.50
2018-06-25T12:57:00.368Z,42.97
2018-06-25T12:59:29.377Z,45.20
2018-06-25T13:01:58.403Z,42.46
2018-06-25T13:04:27.402Z,40.44
2018-06-25T13:06:56.367Z,39.22
2018-06-25T13:09:25.282Z,37.91
2018-06-25T13:11:54.330Z,40.18
2018-06-25T13:14:25.680Z,40.38
2018-06-25T13:16:54.620Z,45.49
2018-06-25T13:19:23.529Z,44.79
2018-06-25T13:21:52.464Z,39.63
2018-06-25T13:24:26.919Z,41.12
2018-06-25T13:27:01.548Z,39.15
2018-06-25T13:29:36.019Z,36.91
2018-06-25T13:32:04.995Z,40.23
2018-06-25T13:34:33.961Z,40.23
2018-06-25T13:37:02.903Z,42.58
2018-06-25T13:39:40.712Z,44.87
2018-06-25T13:42:09.672Z,39.61
2018-06-25T13:44:38.727Z,40.71
2018-06-25T13:47:07.799Z,39.71
2018-06-25T13:49:41.734Z,40.63
2018-06-25T13:52:10.729Z,41.75
2018-06-25T13:54:39.782Z,40.17
2018-06-25T13:57:09.709Z,40.79
2018-06-25T13:59:38.781Z,35.31
2018-06-25T14:02:07.859Z,39.01
2018-06-25T14:04:37.103Z,36.69
2018-06-25T14:07:06.205Z,32.61
2018-06-25T14:09:35.165Z,34.26
2018-06-25T14:12:04.148Z,36.27
2018-06-25T14:14:33.176Z,37.89
2018-06-25T14:17:02.189Z,35.21
2018-06-25T14:19:31.048Z,36.31
2018-06-25T14:22:00.057Z,38.15
2018-06-25T14:25:02.072Z,40.20
2018-06-25T14:27:36.428Z,35.51
2018-06-25T14:30:10.591Z,34.68
2018-06-25T14:32:40.235Z,35.82
2018-06-25T14:35:15.830Z,34.49
2018-06-25T14:37:45.673Z,39.30
2018-06-25T14:40:14.701Z,37.45
2018-06-25T14:42:43.905Z,35.45
2018-06-25T14:45:14.875Z,37.77
2018-06-25T14:47:43.900Z,37.78
2018-06-25T14:50:12.841Z,37.27
2018-06-25T14:52:41.777Z,34.49
2018-06-25T14:55:11.389Z,34.84
2018-06-25T14:57:40.370Z,34.58
2018-06-25T15:00:09.292Z,35.87
2018-06-25T15:02:38.288Z,38.29
2018-06-25T15:05:10.735Z,38.41
2018-06-25T15:07:39.705Z,40.03
2018-06-25T15:10:08.663Z,37.89
2018-06-25T15:12:37.723Z,38.10
2018-06-25T15:15:06.702Z,37.78
2018-06-25T15:17:35.654Z,36.41
2018-06-25T15:20:04.701Z,38.85
2018-06-25T15:22:33.680Z,41.13
2018-06-25T15:25:02.644Z,37.91
2018-06-25T15:27:35.191Z,41.75
2018-06-25T15:30:04.258Z,41.05
2018-06-25T15:32:33.178Z,41.81
2018-06-25T15:35:02.255Z,41.64
2018-06-25T15:37:34.213Z,40.77
2018-06-25T15:40:06.589Z,44.18
2018-06-25T15:42:35.527Z,45.15
2018-06-25T15:45:05.491Z,44.88
2018-06-25T15:47:34.484Z,43.95
2018-06-25T15:50:04.866Z,43.82
2018-06-25T15:52:33.897Z,43.51
2018-06-25T15:55:02.921Z,43.31
2018-06-25T15:57:35.545Z,43.18
2018-06-25T16:00:04.798Z,43.94
2018-06-25T16:02:34.415Z,41.58
2018-06-25T16:05:05.405Z,41.70
2018-06-25T16:07:34.367Z,45.60
2018-06-25T16:10:03.358Z,44.92
2018-06-25T16:12:32.386Z,45.90
2018-06-25T16:15:01.306Z,45.08
2018-06-25T16:17:30.268Z,44.09
2018-06-25T16:19:59.244Z,45.79
2018-06-25T16:22:28.257Z,45.37
2018-06-25T16:24:57.184Z,46.29
2018-06-25T16:27:26.182Z,46.41
2018-06-25T16:29:55.139Z,47.14
2018-06-25T16:32:24.234Z,47.27
2018-06-25T16:34:53.154Z,45.29
2018-06-25T16:37:22.078Z,46.10
2018-06-25T16:39:51.064Z,46.18
2018-06-25T16:42:20.067Z,47.35
2018-06-25T16:44:49.038Z,46.57
2018-06-25T16:47:18.150Z,47.94
2018-06-25T16:49:47.115Z,48.24
2018-06-25T16:52:16.132Z,47.87
2018-06-25T16:54:45.256Z,49.65
2018-06-25T16:57:14.165Z,50.57
2018-06-25T16:59:46.310Z,50.61
2018-06-25T17:02:15.268Z,51.24
2018-06-25T17:04:44.183Z,50.48
2018-06-25T17:07:13.175Z,49.44
2018-06-25T17:09:45.433Z,51.89
2018-06-25T17:12:15.388Z,53.42
2018-06-25T17:14:44.320Z,54.38
2018-06-25T17:17:13.292Z,53.29
2018-06-25T17:19:42.279Z,54.55
2018-06-25T17:22:11.292Z,55.98
2018-06-25T17:24:40.274Z,56.18
2018-06-25T17:27:09.151Z,56.30
2018-06-25T17:29:38.168Z,56.22
2018-06-25T17:32:07.850Z,56.60
2018-06-25T17:34:36.764Z,58.08
2018-06-25T17:37:05.706Z,58.25
2018-06-25T17:39:34.644Z,58.72
2018-06-25T17:42:03.578Z,58.13
2018-06-25T17:44:32.561Z,56.52
2018-06-25T17:47:01.593Z,55.94
2018-06-25T17:49:30.537Z,56.75
2018-06-25T17:52:01.482Z,58.01
2018-06-25T17:54:30.463Z,58.41
2018-06-25T17:56:59.446Z,58.12
2018-06-25T17:59:31.949Z,58.55
2018-06-25T18:02:00.921Z,58.65
2018-06-25T18:04:29.916Z,58.52
2018-06-25T18:06:58.962Z,59.74
2018-06-25T18:09:27.875Z,60.82
2018-06-25T18:12:02.544Z,61.84
2018-06-25T18:14:31.493Z,62.51
2018-06-25T18:17:00.439Z,62.30
2018-06-25T18:19:29.408Z,62.04
2018-06-25T18:22:02.123Z,62.48
2018-06-25T18:24:31.082Z,62.54
2018-06-25T18:27:00.039Z,62.69
2018-06-25T18:29:28.988Z,62.98
2018-06-25T18:31:57.940Z,63.20
2018-06-25T18:34:26.878Z,63.44
2018-06-25T18:36:55.790Z,64.40
2018-06-25T18:39:24.754Z,64.32
2018-06-25T18:41:53.721Z,65.51
2018-06-25T18:44:23.534Z,65.67
2018-06-25T18:46:52.524Z,65.28
2018-06-25T18:49:24.902Z,65.06
2018-06-25T18:51:53.898Z,64.50
2018-06-25T18:54:22.859Z,64.29
2018-06-25T18:56:51.775Z,64.10
2018-06-25T18:59:20.774Z,64.65
2018-06-25T19:01:53.345Z,64.85
2018-06-25T19:04:22.325Z,64.10
2018-06-25T19:06:51.424Z,64.31
2018-06-25T19:09:20.437Z,64.81
2018-06-25T19:11:49.361Z,65.02
2018-06-25T19:14:18.328Z,65.80
2018-06-25T19:16:48.307Z,65.56
2018-06-25T19:19:17.256Z,65.63
2018-06-25T19:21:46.202Z,65.87
2018-06-25T19:24:15.179Z,66.46
2018-06-25T19:26:44.124Z,66.39
2018-06-25T19:29:13.091Z,66.68
2018-06-25T19:31:42.043Z,67.19
2018-06-25T19:34:10.984Z,67.44
2018-06-25T19:36:43.330Z,68.13
2018-06-25T19:39:13.531Z,68.59
2018-06-25T19:41:42.499Z,68.63
2018-06-25T19:44:12.280Z,68.86
2018-06-25T19:46:41.291Z,69.18
2018-06-25T19:49:15.848Z,69.22
2018-06-25T19:51:51.263Z,69.61
2018-06-25T19:54:20.241Z,70.02
2018-06-25T19:56:49.201Z,69.81
2018-06-25T19:59:18.160Z,70.32
2018-06-25T20:01:51.052Z,70.61
2018-06-25T20:04:20.048Z,70.44
2018-06-25T20:06:49.973Z,70.66
2018-06-25T20:09:18.925Z,71.16
2018-06-25T20:11:47.861Z,71.45
2018-06-25T20:14:16.821Z,71.76
2018-06-25T20:16:45.835Z,71.61
2018-06-25T20:19:20.204Z,72.29
2018-06-25T20:21:49.178Z,73.11
2018-06-25T20:24:18.144Z,73.19
2018-06-25T20:26:47.091Z,73.72
2018-06-25T20:29:17.176Z,74.67
2018-06-25T20:31:46.060Z,75.01
2018-06-25T20:34:15.033Z,75.05
2018-06-25T20:36:44.074Z,75.24
2018-06-25T20:39:18.729Z,76.19
2018-06-25T20:41:48.048Z,76.77
2018-06-25T20:44:17.046Z,77.08
2018-06-25T20:46:46.037Z,77.30
2018-06-25T20:49:15.002Z,78.11
2018-06-25T20:51:44.539Z,77.83
2018-06-25T20:54:15.607Z,78.53
2018-06-25T20:56:44.555Z,78.40
2018-06-25T20:59:13.538Z,78.79
2018-06-25T21:01:42.606Z,78.71
2018-06-25T21:04:11.565Z,79.04
2018-06-25T21:06:40.531Z,78.76
2018-06-25T21:09:11.136Z,79.20
2018-06-25T21:11:42.290Z,78.90
2018-06-25T21:14:11.242Z,78.89
2018-06-25T21:16:40.214Z,78.93
2018-06-25T21:19:09.154Z,79.03
2018-06-25T21:21:38.170Z,78.65
2018-06-25T21:24:07.129Z,78.51
2018-06-25T21:26:36.093Z,78.50
2018-06-25T21:29:05.457Z,78.93
2018-06-25T21:31:34.383Z,79.18
2018-06-25T21:34:07.188Z,79.63
2018-06-25T21:36:36.132Z,79.71
2018-06-25T21:39:07.026Z,79.96
2018-06-25T21:41:35.956Z,80.63
2018-06-25T21:44:05.017Z,80.73
2018-06-25T21:46:34.197Z,80.82
2018-06-25T21:49:03.553Z,80.79
2018-06-25T21:51:41.948Z,81.15
2018-06-25T21:54:10.870Z,81.25
2018-06-25T21:56:39.801Z,81.35
2018-06-25T21:59:08.792Z,81.62
2018-06-25T22:01:37.892Z,81.53
2018-06-25T22:04:06.973Z,81.44
2018-06-25T22:06:35.910Z,81.48
2018-06-25T22:09:08.128Z,81.64
2018-06-25T22:11:37.082Z,81.93
2018-06-25T22:14:06.074Z,81.86
2018-06-25T22:16:35.268Z,81.81
2018-06-25T22:19:04.502Z,81.68
2018-06-25T22:21:33.458Z,81.93
2018-06-25T22:24:02.502Z,81.97
2018-06-25T22:26:31.477Z,81.66
2018-06-25T22:29:00.444Z,82.26
2018-06-25T22:31:29.425Z,82.42
2018-06-25T22:33:58.384Z,82.03
2018-06-25T22:36:30.654Z,82.02
2018-06-25T22:38:59.696Z,81.89
2018-06-25T22:41:28.640Z,81.99
2018-06-25T22:44:08.924Z,82.07
2018-06-25T22:46:39.122Z,82.34
2018-06-25T22:49:13.623Z,82.62
2018-06-25T22:51:48.093Z,82.54
2018-06-25T22:54:17.049Z,82.54
2018-06-25T22:56:46.035Z,82.34
2018-06-25T22:59:15.032Z,82.32
2018-06-25T23:01:44.004Z,82.29
2018-06-25T23:04:12.918Z,82.25
2018-06-25T23:06:41.861Z,82.03
2018-06-25T23:09:11.666Z,81.97
2018-06-25T23:11:40.624Z,82.33
2018-06-25T23:14:09.571Z,82.46
2018-06-25T23:16:38.562Z,82.27
2018-06-25T23:19:07.500Z,82.33
2018-06-25T23:21:36.378Z,82.45
2018-06-25T23:24:05.361Z,82.57
2018-06-25T23:26:34.333Z,82.69
2018-06-25T23:29:03.380Z,82.96
2018-06-25T23:31:32.327Z,82.90
2018-06-25T23:34:01.269Z,83.00
2018-06-25T23:36:30.197Z,83.16
2018-06-25T23:38:59.141Z,83.02
2018-06-25T23:41:28.166Z,83.03
2018-06-25T23:43:57.183Z,83.14
2018-06-25T23:46:26.207Z,83.31
2018-06-25T23:48:55.139Z,83.59
2018-06-25T23:51:24.153Z,83.52
2018-06-25T23:53:53.138Z,83.29
2018-06-25T23:56:22.751Z,83.14
2018-06-25T23:58:52.048Z,83.13
